createdAt,value
2019-06-20T00:01:25.916Z,89.50
2019-06-20T00:03:54.954Z,89.20
2019-06-20T00:06:23.534Z,89.10
2019-06-20T00:08:51.753Z,88.40
2019-06-20T00:11:20.159Z,87.70
2019-06-20T00:13:48.721Z,87.70
2019-06-20T00:16:16.931Z,87.00
2019-06-20T00:18:45.936Z,87.70
2019-06-20T00:21:14.242Z,87.40
2019-06-20T00:23:42.487Z,87.10
2019-06-20T00:26:10.724Z,87.00
2019-06-20T00:28:40.960Z,87.40
2019-06-20T00:31:09.221Z,87.20
2019-06-20T00:33:37.448Z,87.40
2019-06-20T00:36:06.045Z,86.80
2019-06-20T00:38:34.399Z,85.90
2019-06-20T00:41:02.735Z,85.80
2019-06-20T00:43:30.965Z,86.10
2019-06-20T00:45:59.277Z,86.60
2019-06-20T00:48:28.625Z,87.10
2019-06-20T00:50:56.913Z,87.00
2019-06-20T00:53:25.134Z,86.50
2019-06-20T00:55:53.753Z,87.50
2019-06-20T00:58:21.996Z,87.50
2019-06-20T01:00:50.337Z,87.60
2019-06-20T01:03:18.628Z,87.80
2019-06-20T01:05:47.957Z,88.10
2019-06-20T01:08:16.392Z,88.70
2019-06-20T01:10:45.064Z,88.20
2019-06-20T01:13:14.415Z,87.80
2019-06-20T01:15:42.676Z,87.20
2019-06-20T01:18:10.891Z,87.30
2019-06-20T01:20:40.676Z,88.50
2019-06-20T01:23:09.980Z,89.70
2019-06-20T01:25:42.282Z,89.60
2019-06-20T01:28:10.694Z,90.10
2019-06-20T01:30:38.905Z,90.00
2019-06-20T01:33:08.321Z,89.00
2019-06-20T01:35:36.602Z,88.70
2019-06-20T01:38:04.920Z,89.10
2019-06-20T01:40:33.226Z,88.70
2019-06-20T01:43:01.622Z,88.40
2019-06-20T01:45:31.008Z,88.30
2019-06-20T01:47:59.235Z,88.40
2019-06-20T01:50:29.390Z,88.20
2019-06-20T01:52:57.606Z,88.30
2019-06-20T01:55:25.849Z,89.00
2019-06-20T01:57:54.113Z,89.20
2019-06-20T02:00:45.445Z,89.40
2019-06-20T02:03:14.535Z,89.50
2019-06-20T02:05:43.932Z,89.90
2019-06-20T02:08:12.488Z,90.10
2019-06-20T02:10:40.713Z,90.10
2019-06-20T02:13:08.945Z,90.00
2019-06-20T02:15:37.783Z,90.00
2019-06-20T02:18:05.992Z,90.20
2019-06-20T02:20:40.379Z,90.30
2019-06-20T02:23:08.712Z,90.30
2019-06-20T02:25:36.951Z,90.30
2019-06-20T02:28:05.186Z,90.20
2019-06-20T02:30:33.412Z,90.30
2019-06-20T02:33:01.640Z,90.20
2019-06-20T02:35:30.715Z,90.40
2019-06-20T02:37:58.939Z,90.40
2019-06-20T02:40:27.187Z,90.50
2019-06-20T02:42:55.442Z,90.60
2019-06-20T02:45:23.694Z,90.70
2019-06-20T02:47:52.307Z,90.80
2019-06-20T02:50:20.757Z,90.70
2019-06-20T02:52:48.981Z,90.40
2019-06-20T02:55:18.623Z,90.20
2019-06-20T02:57:47.468Z,90.10
2019-06-20T03:00:15.714Z,90.10
2019-06-20T03:02:43.940Z,90.50
2019-06-20T03:05:12.220Z,90.50
2019-06-20T03:07:40.480Z,90.40
2019-06-20T03:10:08.723Z,90.60
2019-06-20T03:12:36.942Z,90.60
2019-06-20T03:15:05.896Z,90.60
2019-06-20T03:17:34.232Z,90.50
2019-06-20T03:20:02.646Z,90.40
2019-06-20T03:22:32.040Z,90.40
2019-06-20T03:25:00.308Z,90.10
2019-06-20T03:27:28.545Z,90.70
2019-06-20T03:29:57.212Z,90.00
2019-06-20T03:32:25.447Z,90.10
2019-06-20T03:34:53.666Z,90.30
2019-06-20T03:37:22.497Z,90.20
2019-06-20T03:39:50.748Z,90.60
2019-06-20T03:42:18.967Z,90.20
2019-06-20T03:45:01.223Z,90.20
2019-06-20T03:47:17.295Z,90.10
2019-06-20T03:49:45.517Z,90.10
2019-06-20T03:52:14.743Z,90.10
2019-06-20T03:54:42.963Z,90.10
2019-06-20T03:57:12.404Z,90.40
2019-06-20T03:59:40.726Z,90.50
2019-06-20T04:02:11.169Z,90.30
2019-06-20T04:04:39.395Z,90.50
2019-06-20T04:07:07.615Z,90.40
2019-06-20T04:09:35.850Z,90.50
2019-06-20T04:12:04.313Z,90.60
2019-06-20T04:14:32.517Z,90.20
2019-06-20T04:17:00.828Z,90.30
2019-06-20T04:19:29.255Z,90.40
2019-06-20T04:21:57.498Z,90.30
2019-06-20T04:24:27.863Z,90.10
2019-06-20T04:26:55.728Z,90.40
2019-06-20T04:29:24.024Z,90.20
2019-06-20T04:31:52.280Z,90.30
2019-06-20T04:34:20.519Z,90.60
2019-06-20T04:36:48.757Z,90.60
2019-06-20T04:39:19.597Z,90.60
2019-06-20T04:41:46.979Z,90.60
2019-06-20T04:44:15.539Z,90.50
2019-06-20T04:46:48.522Z,90.60
2019-06-20T04:49:19.715Z,90.30
2019-06-20T04:51:46.735Z,90.40
2019-06-20T04:54:15.043Z,90.60
2019-06-20T04:56:43.291Z,90.40
2019-06-20T04:59:11.779Z,90.40
2019-06-20T05:01:40.028Z,90.50
2019-06-20T05:04:08.260Z,90.50
2019-06-20T05:06:36.783Z,90.20
2019-06-20T05:09:07.340Z,90.00
2019-06-20T05:11:35.783Z,89.90
2019-06-20T05:14:04.018Z,89.50
2019-06-20T05:16:32.359Z,89.40
2019-06-20T05:19:01.039Z,89.60
2019-06-20T05:21:29.759Z,89.40
2019-06-20T05:23:58.298Z,89.10
2019-06-20T05:26:26.713Z,89.40
2019-06-20T05:28:55.199Z,89.20
2019-06-20T05:31:23.606Z,89.00
2019-06-20T05:33:52.166Z,89.40
2019-06-20T05:36:20.433Z,89.20
2019-06-20T05:39:00.392Z,89.70
2019-06-20T05:41:27.782Z,89.10
2019-06-20T05:44:05.589Z,89.50
2019-06-20T05:46:33.849Z,88.90
2019-06-20T05:49:02.119Z,89.20
2019-06-20T05:51:30.422Z,89.10
2019-06-20T05:53:58.635Z,88.70
2019-06-20T05:56:26.860Z,88.00
2019-06-20T05:58:55.076Z,87.90
2019-06-20T06:01:23.342Z,88.20
2019-06-20T06:03:51.573Z,87.90
2019-06-20T06:06:19.945Z,87.80
2019-06-20T06:08:48.537Z,88.40
2019-06-20T06:11:17.463Z,88.30
2019-06-20T06:13:45.709Z,88.30
2019-06-20T06:16:25.648Z,88.40
2019-06-20T06:18:43.861Z,88.50
2019-06-20T06:21:12.080Z,88.90
2019-06-20T06:23:40.370Z,89.30
2019-06-20T06:26:08.689Z,88.80
2019-06-20T06:28:36.962Z,88.40
2019-06-20T06:31:05.311Z,88.50
2019-06-20T06:33:33.540Z,88.00
2019-06-20T06:36:01.813Z,87.40
2019-06-20T06:38:30.065Z,87.60
2019-06-20T07:12:26.567Z,87.80
2019-06-20T07:14:54.792Z,87.40
2019-06-20T07:17:23.034Z,87.60
2019-06-20T07:19:51.263Z,88.20
2019-06-20T07:38:32.288Z,86.90
2019-06-20T07:41:00.537Z,87.00
2019-06-20T07:43:28.748Z,86.90
2019-06-20T07:46:02.586Z,87.00
2019-06-20T07:48:26.968Z,87.00
2019-06-20T07:50:55.271Z,86.90
2019-06-20T07:53:23.490Z,87.30
2019-06-20T07:55:51.829Z,87.50
2019-06-20T07:58:20.047Z,87.60
2019-06-20T08:00:48.285Z,87.40
2019-06-20T08:03:16.634Z,87.40
2019-06-20T08:05:44.847Z,87.30
2019-06-20T08:08:13.080Z,87.00
2019-06-20T08:10:41.889Z,86.50
2019-06-20T08:13:10.275Z,86.70
2019-06-20T08:15:38.546Z,87.40
2019-06-20T08:18:06.940Z,87.70
2019-06-20T08:20:35.180Z,87.50
2019-06-20T08:23:03.394Z,87.70
2019-06-20T08:25:31.630Z,86.50
2019-06-20T08:28:00.778Z,85.50
2019-06-20T08:30:30.685Z,85.70
2019-06-20T08:33:01.269Z,86.00
2019-06-20T08:35:30.088Z,85.30
2019-06-20T08:37:59.336Z,84.40
2019-06-20T08:40:29.536Z,84.40
2019-06-20T08:42:59.847Z,84.50
2019-06-20T08:45:29.607Z,84.30
2019-06-20T08:47:58.317Z,84.10
2019-06-20T08:50:26.731Z,84.00
2019-06-20T08:52:56.073Z,84.50
2019-06-20T08:55:25.193Z,84.10
2019-06-20T08:57:55.710Z,84.30
2019-06-20T09:00:23.752Z,84.40
2019-06-20T09:02:52.051Z,84.00
2019-06-20T09:05:20.439Z,84.20
2019-06-20T09:07:49.143Z,84.10
2019-06-20T09:10:17.366Z,84.00
2019-06-20T09:12:46.344Z,83.50
2019-06-20T09:15:14.657Z,83.50
2019-06-20T09:17:42.894Z,83.60
2019-06-20T09:20:12.222Z,83.30
2019-06-20T09:22:40.437Z,83.10
2019-06-20T09:25:08.714Z,83.30
2019-06-20T09:27:37.402Z,83.60
2019-06-20T09:30:09.518Z,83.50
2019-06-20T09:32:38.300Z,83.00
2019-06-20T09:35:07.594Z,82.70
2019-06-20T09:37:36.962Z,83.00
2019-06-20T09:40:06.033Z,83.00
2019-06-20T09:42:36.839Z,83.20
2019-06-20T09:45:07.655Z,82.90
2019-06-20T09:47:35.902Z,82.60
2019-06-20T09:50:09.261Z,82.60
2019-06-20T09:52:37.613Z,82.70
2019-06-20T09:55:08.939Z,82.80
2019-06-20T09:57:37.203Z,83.10
2019-06-20T10:00:11.007Z,83.60
2019-06-20T10:02:40.098Z,83.50
2019-06-20T10:05:08.502Z,84.20
2019-06-20T10:07:36.904Z,83.30
2019-06-20T10:10:08.169Z,83.30
2019-06-20T10:12:36.712Z,82.80
2019-06-20T10:15:22.643Z,82.50
2019-06-20T10:17:51.207Z,82.50
2019-06-20T10:20:20.282Z,82.60
2019-06-20T10:22:48.582Z,82.70
2019-06-20T10:25:16.844Z,82.10
2019-06-20T10:27:46.632Z,82.30
2019-06-20T10:30:15.207Z,82.30
2019-06-20T10:32:45.205Z,82.50
2019-06-20T10:35:13.752Z,82.80
2019-06-20T10:37:45.067Z,82.80
2019-06-20T10:40:13.026Z,83.00
2019-06-20T10:42:41.313Z,82.80
2019-06-20T10:45:10.058Z,83.00
2019-06-20T10:47:38.290Z,83.40
2019-06-20T10:50:06.770Z,82.90
2019-06-20T10:52:34.988Z,81.60
2019-06-20T10:55:05.154Z,80.60
2019-06-20T10:57:33.444Z,80.50
2019-06-20T11:00:01.683Z,80.40
2019-06-20T11:02:29.973Z,80.40
2019-06-20T11:04:58.234Z,80.10
2019-06-20T11:07:26.851Z,80.30
2019-06-20T11:09:55.103Z,78.10
2019-06-20T11:12:23.457Z,77.70
2019-06-20T11:14:52.193Z,77.00
2019-06-20T11:17:20.413Z,77.40
2019-06-20T11:19:48.719Z,77.70
2019-06-20T11:22:17.020Z,76.50
2019-06-20T11:24:45.318Z,74.90
2019-06-20T11:27:13.644Z,74.50
2019-06-20T11:29:42.123Z,75.10
2019-06-20T11:32:10.330Z,75.20
2019-06-20T11:34:39.395Z,74.60
2019-06-20T11:37:07.770Z,75.00
2019-06-20T11:39:37.325Z,74.60
2019-06-20T11:42:05.834Z,74.60
2019-06-20T11:44:35.356Z,75.40
2019-06-20T11:47:04.129Z,75.10
2019-06-20T11:49:34.542Z,75.10
2019-06-20T11:52:02.390Z,74.80
2019-06-20T11:54:31.873Z,75.00
2019-06-20T11:57:00.586Z,72.50
2019-06-20T11:59:28.835Z,72.50
2019-06-20T12:01:57.114Z,72.50
2019-06-20T12:04:25.455Z,71.50
2019-06-20T12:06:55.378Z,72.00
2019-06-20T12:09:23.801Z,73.10
2019-06-20T12:11:52.637Z,73.80
2019-06-20T12:14:20.865Z,73.60
2019-06-20T12:16:49.249Z,74.10
2019-06-20T12:19:19.111Z,74.30
2019-06-20T12:21:49.005Z,74.00
2019-06-20T12:24:17.435Z,74.00
2019-06-20T12:26:46.870Z,73.40
2019-06-20T12:29:15.164Z,74.30
2019-06-20T12:31:43.464Z,73.90
2019-06-20T12:34:11.675Z,74.60
2019-06-20T12:36:40.955Z,74.80
2019-06-20T12:39:09.891Z,75.50
2019-06-20T12:41:38.718Z,74.80
2019-06-20T12:44:08.617Z,75.00
2019-06-20T12:46:36.810Z,74.80
2019-06-20T12:49:05.166Z,74.80
2019-06-20T12:51:33.418Z,75.80
2019-06-20T12:54:01.727Z,74.60
2019-06-20T12:56:29.959Z,73.90
2019-06-20T12:58:58.189Z,73.30
2019-06-20T13:01:36.774Z,73.60
2019-06-20T13:03:56.372Z,72.20
2019-06-20T13:06:24.596Z,72.20
2019-06-20T13:08:52.843Z,70.80
2019-06-20T13:11:21.142Z,70.60
2019-06-20T13:13:49.453Z,70.90
2019-06-20T13:16:17.675Z,71.00
2019-06-20T13:18:46.271Z,71.30
2019-06-20T13:21:14.731Z,71.40
2019-06-20T13:23:43.224Z,72.40
2019-06-20T13:26:11.575Z,73.20
2019-06-20T13:28:59.177Z,73.10
2019-06-20T13:31:09.792Z,73.30
2019-06-20T13:33:39.178Z,72.70
2019-06-20T13:36:08.549Z,72.70
2019-06-20T13:38:37.995Z,73.30
2019-06-20T13:41:06.884Z,73.60
2019-06-20T13:43:35.218Z,74.50
2019-06-20T13:46:03.483Z,74.90
2019-06-20T13:48:31.727Z,74.30
2019-06-20T13:51:00.775Z,74.30
2019-06-20T13:53:32.706Z,72.40
2019-06-20T13:56:01.106Z,71.80
2019-06-20T13:58:29.333Z,73.30
2019-06-20T14:00:57.572Z,72.80
2019-06-20T14:03:25.802Z,71.40
2019-06-20T14:05:54.089Z,71.40
2019-06-20T14:08:22.305Z,71.40
2019-06-20T14:10:51.923Z,73.00
2019-06-20T14:13:20.840Z,74.20
2019-06-20T14:15:51.147Z,75.70
2019-06-20T14:18:19.661Z,75.10
2019-06-20T14:20:48.505Z,74.90
2019-06-20T14:23:16.924Z,74.90
2019-06-20T14:25:46.326Z,74.70
2019-06-20T14:28:14.757Z,73.90
2019-06-20T14:30:44.639Z,74.30
2019-06-20T14:33:13.055Z,74.10
2019-06-20T14:35:42.343Z,72.60
2019-06-20T14:38:11.521Z,72.10
2019-06-20T14:40:40.306Z,72.60
2019-06-20T14:43:08.524Z,72.70
2019-06-20T14:45:38.090Z,72.70
2019-06-20T14:48:06.755Z,72.50
2019-06-20T14:50:34.965Z,72.80
2019-06-20T14:53:03.177Z,72.80
2019-06-20T14:55:31.420Z,72.70
2019-06-20T14:57:59.858Z,71.70
2019-06-20T15:00:28.339Z,72.10
2019-06-20T15:02:58.548Z,71.70
2019-06-20T15:05:26.504Z,72.00
2019-06-20T15:07:55.858Z,72.60
2019-06-20T15:10:24.444Z,72.60
2019-06-20T15:12:53.784Z,72.60
2019-06-20T15:15:23.428Z,72.80
2019-06-20T15:17:54.084Z,72.20
2019-06-20T15:20:22.848Z,71.40
2019-06-20T15:22:52.570Z,71.00
2019-06-20T15:25:21.745Z,71.40
2019-06-20T15:27:53.188Z,71.90
2019-06-20T15:30:21.086Z,72.00
2019-06-20T15:33:01.061Z,72.20
2019-06-20T15:35:19.618Z,72.00
2019-06-20T15:37:49.662Z,72.10
2019-06-20T15:40:17.853Z,72.20
2019-06-20T15:42:47.130Z,72.40
2019-06-20T15:45:16.165Z,72.60
2019-06-20T15:47:44.399Z,72.90
2019-06-20T15:50:13.175Z,72.80
2019-06-20T15:52:41.402Z,73.00
2019-06-20T15:55:10.042Z,73.20
2019-06-20T15:57:38.454Z,73.60
2019-06-20T16:00:10.960Z,73.80
2019-06-20T16:02:39.269Z,74.20
2019-06-20T16:05:09.021Z,75.00
2019-06-20T16:07:38.498Z,75.00
2019-06-20T16:10:08.444Z,75.50
2019-06-20T16:12:36.896Z,76.70
2019-06-20T16:15:09.803Z,78.90
2019-06-20T16:17:38.128Z,78.80
2019-06-20T16:20:06.495Z,80.00
2019-06-20T16:22:34.844Z,79.50
2019-06-20T16:25:03.764Z,79.40
2019-06-20T16:27:31.978Z,78.20
2019-06-20T16:30:00.227Z,77.40
2019-06-20T16:32:28.517Z,77.00
2019-06-20T16:34:56.747Z,76.40
2019-06-20T16:37:24.957Z,73.50
2019-06-20T16:39:53.231Z,71.80
2019-06-20T16:42:21.677Z,71.10
2019-06-20T16:44:49.961Z,71.00
2019-06-20T16:47:19.301Z,72.40
2019-06-20T16:49:47.578Z,72.50
2019-06-20T16:52:15.786Z,73.40
2019-06-20T16:54:44.030Z,72.50
2019-06-20T16:57:12.350Z,70.00
2019-06-20T16:59:40.656Z,71.40
2019-06-20T17:02:08.859Z,72.20
2019-06-20T17:04:37.143Z,72.60
2019-06-20T17:07:05.464Z,72.20
2019-06-20T17:09:33.794Z,71.20
2019-06-20T17:12:02.241Z,72.00
2019-06-20T17:14:30.451Z,71.70
2019-06-20T17:16:58.786Z,72.20
2019-06-20T17:19:27.067Z,72.70
2019-06-20T17:21:55.330Z,72.60
2019-06-20T17:24:23.658Z,73.90
2019-06-20T17:26:51.890Z,71.20
2019-06-20T17:29:20.165Z,72.70
2019-06-20T17:31:48.422Z,73.80
2019-06-20T17:34:16.721Z,72.00
2019-06-20T17:36:45.003Z,72.50
2019-06-20T17:39:13.250Z,71.10
2019-06-20T17:41:54.379Z,70.80
2019-06-20T17:44:11.500Z,69.30
2019-06-20T17:46:39.733Z,70.40
2019-06-20T17:49:08.059Z,71.10
2019-06-20T17:51:36.290Z,71.30
2019-06-20T17:54:04.546Z,71.30
2019-06-20T17:56:32.763Z,70.50
2019-06-20T17:59:01.240Z,70.00
2019-06-20T18:01:29.458Z,71.10
2019-06-20T18:04:12.637Z,69.10
2019-06-20T18:06:27.872Z,70.00
2019-06-20T18:08:56.219Z,71.20
2019-06-20T18:11:24.537Z,73.40
2019-06-20T18:13:52.851Z,73.40
2019-06-20T18:16:25.435Z,72.20
2019-06-20T18:18:51.554Z,73.90
2019-06-20T18:21:19.874Z,73.20
2019-06-20T18:23:48.151Z,73.00
2019-06-20T18:26:16.393Z,72.10
2019-06-20T18:28:44.704Z,73.20
2019-06-20T18:31:12.908Z,74.80
2019-06-20T18:33:41.139Z,75.50
2019-06-20T18:36:09.430Z,75.20
2019-06-20T18:38:37.684Z,71.50
2019-06-20T18:41:05.873Z,71.20
2019-06-20T18:43:34.112Z,71.00
2019-06-20T18:46:02.545Z,70.80
2019-06-20T18:48:30.843Z,72.00
2019-06-20T18:50:59.066Z,72.80
2019-06-20T18:53:27.287Z,73.40
2019-06-20T18:55:55.741Z,74.70
2019-06-20T18:58:24.216Z,76.30
2019-06-20T19:00:52.423Z,76.50
2019-06-20T19:03:21.461Z,76.30
2019-06-20T19:05:49.843Z,76.00
2019-06-20T19:08:18.323Z,75.90
2019-06-20T19:10:46.502Z,76.20
2019-06-20T19:13:14.728Z,76.60
2019-06-20T19:15:43.054Z,77.00
2019-06-20T19:18:11.335Z,77.50
2019-06-20T19:20:39.701Z,77.80
2019-06-20T19:23:07.999Z,78.50
2019-06-20T19:25:36.216Z,78.60
2019-06-20T19:28:04.484Z,78.50
2019-06-20T19:30:38.870Z,78.50
2019-06-20T19:33:07.142Z,78.60
2019-06-20T19:35:35.515Z,78.50
2019-06-20T19:38:03.784Z,78.60
2019-06-20T19:40:35.269Z,78.50
2019-06-20T19:43:03.517Z,78.50
2019-06-20T19:45:32.187Z,79.30
2019-06-20T19:48:00.576Z,78.90
2019-06-20T19:50:28.822Z,79.00
2019-06-20T19:52:57.030Z,78.90
2019-06-20T19:55:26.433Z,79.50
2019-06-20T19:57:54.864Z,79.50
2019-06-20T20:00:23.210Z,79.50
2019-06-20T20:02:51.595Z,79.60
2019-06-20T20:05:20.168Z,79.70
2019-06-20T20:07:48.643Z,80.00
2019-06-20T20:10:20.189Z,80.40
2019-06-20T20:12:48.845Z,80.50
2019-06-20T20:15:17.240Z,81.20
2019-06-20T20:17:45.523Z,81.50
2019-06-20T20:20:13.798Z,80.70
2019-06-20T20:22:42.069Z,80.70
2019-06-20T20:25:10.291Z,80.40
2019-06-20T20:27:38.615Z,80.60
2019-06-20T20:30:12.704Z,81.00
2019-06-20T20:32:41.372Z,81.00
2019-06-20T20:35:09.615Z,81.50
2019-06-20T20:37:37.934Z,81.60
2019-06-20T20:40:07.700Z,81.60
2019-06-20T20:42:36.451Z,81.60
2019-06-20T20:45:06.896Z,83.30
2019-06-20T20:47:35.268Z,83.30
2019-06-20T20:50:05.496Z,85.50
2019-06-20T20:52:33.747Z,86.20
2019-06-20T20:55:02.265Z,86.40
2019-06-20T20:57:30.522Z,86.80
2019-06-20T20:59:59.216Z,87.50
2019-06-20T21:02:27.458Z,88.10
2019-06-20T21:04:55.680Z,89.00
2019-06-20T21:07:24.073Z,89.30
2019-06-20T21:09:52.322Z,90.00
2019-06-20T21:12:20.568Z,90.20
2019-06-20T21:14:48.810Z,90.40
2019-06-20T21:17:17.041Z,90.30
2019-06-20T21:19:45.349Z,88.90
2019-06-20T21:22:13.611Z,90.00
2019-06-20T21:24:43.374Z,89.50
2019-06-20T21:27:11.860Z,88.90
2019-06-20T21:29:40.110Z,88.90
2019-06-20T21:32:08.608Z,89.60
2019-06-20T21:34:36.899Z,89.60
2019-06-20T21:37:05.176Z,90.00
2019-06-20T21:39:34.202Z,88.60
2019-06-20T21:42:02.837Z,88.90
2019-06-20T21:44:31.042Z,88.00
2019-06-20T21:46:59.287Z,88.20
2019-06-20T21:49:27.498Z,88.50
2019-06-20T21:51:55.713Z,88.50
2019-06-20T21:54:23.950Z,88.30
2019-06-20T21:56:52.254Z,88.50
2019-06-20T21:59:21.523Z,88.70
2019-06-20T22:01:49.752Z,89.00
2019-06-20T22:04:17.979Z,88.40
2019-06-20T22:06:46.216Z,88.70
2019-06-20T22:09:14.448Z,88.90
2019-06-20T22:11:43.885Z,89.70
2019-06-20T22:14:12.118Z,89.50
2019-06-20T22:16:41.339Z,88.30
2019-06-20T22:19:10.562Z,87.80
2019-06-20T22:21:38.790Z,89.00
2019-06-20T22:24:07.015Z,89.40
2019-06-20T22:26:35.249Z,89.60
2019-06-20T22:29:03.532Z,89.50
2019-06-20T22:31:31.808Z,89.40
2019-06-20T22:34:00.031Z,89.10
2019-06-20T22:36:39.648Z,89.30
2019-06-20T22:38:58.195Z,90.00
2019-06-20T22:41:26.491Z,88.70
2019-06-20T22:43:54.767Z,88.70
2019-06-20T22:46:23.002Z,87.90
2019-06-20T22:48:51.318Z,88.50
2019-06-20T22:51:19.545Z,88.00
2019-06-20T22:53:47.830Z,88.90
2019-06-20T22:56:16.646Z,88.40
2019-06-20T22:58:45.396Z,88.10
2019-06-20T23:01:13.605Z,88.40
2019-06-20T23:03:41.857Z,88.40
2019-06-20T23:06:10.117Z,89.10
2019-06-20T23:08:38.402Z,89.10
2019-06-20T23:11:06.669Z,88.90
2019-06-20T23:13:35.089Z,89.00
2019-06-20T23:16:03.372Z,89.10
2019-06-20T23:18:31.684Z,88.60
2019-06-20T23:21:04.922Z,88.90
2019-06-20T23:23:30.807Z,88.60
2019-06-20T23:26:00.769Z,89.10
2019-06-20T23:28:29.012Z,88.50
2019-06-20T23:30:57.246Z,89.20
2019-06-20T23:33:25.640Z,89.30
2019-06-20T23:35:53.955Z,89.30
2019-06-20T23:38:22.239Z,87.90
2019-06-20T23:40:50.478Z,87.80
2019-06-20T23:43:18.730Z,88.60
2019-06-20T23:45:47.027Z,88.80
2019-06-20T23:48:15.343Z,88.90
2019-06-20T23:50:44.457Z,89.20
2019-06-20T23:53:14.379Z,88.90
2019-06-20T23:55:42.771Z,88.80
2019-06-20T23:58:10.997Z,89.30
